Terminal Aerodrome Forecast
Issued by NWS

Home | Current Version | Previous Version | Text Only | Print | Product List | Glossary On
Versions: 1 2 3 4 5 6 7 8 9 10 11 12 13
000
FTUS44 KLIX 050520
TAFGPT
TAF
KGPT 050520Z 0506/0606 00000KT P6SM SKC
     FM051000 00000KT P6SM VCTS SCT025CB OVC090
     FM051200 17007KT P6SM -SHRA OVC070
     FM051500 23007KT P6SM BKN090
     FM060200 00000KT P6SM OVC250=

USA.gov is the U.S. government's official web portal to all federal, state and local government web resources and services.